sensor_id;sensor_type;location;lat;lon;timestamp;P1;durP1;ratioP1;P2;durP2;ratioP2
56039;SDS011;43937;41.366;2.072;2024-03-08T00:01:47;11.40;;;2.53;;
56039;SDS011;43937;41.366;2.072;2024-03-08T00:04:13;9.73;;;2.50;;
56039;SDS011;43937;41.366;2.072;2024-03-08T00:06:40;10.20;;;2.22;;
56039;SDS011;43937;41.366;2.072;2024-03-08T00:09:05;9.87;;;2.17;;
56039;SDS011;43937;41.366;2.072;2024-03-08T00:11:33;11.68;;;2.10;;
56039;SDS011;43937;41.366;2.072;2024-03-08T00:14:01;12.65;;;2.10;;
56039;SDS011;43937;41.366;2.072;2024-03-08T00:16:27;13.20;;;2.20;;
56039;SDS011;43937;41.366;2.072;2024-03-08T00:18:52;10.57;;;2.17;;
56039;SDS011;43937;41.366;2.072;2024-03-08T00:21:18;11.17;;;1.90;;
56039;SDS011;43937;41.366;2.072;2024-03-08T00:23:43;12.75;;;2.53;;
56039;SDS011;43937;41.366;2.072;2024-03-08T00:26:09;10.87;;;2.20;;
56039;SDS011;43937;41.366;2.072;2024-03-08T00:28:34;9.27;;;1.90;;
56039;SDS011;43937;41.366;2.072;2024-03-08T00:31:00;14.77;;;2.22;;
56039;SDS011;43937;41.366;2.072;2024-03-08T00:33:26;12.23;;;2.20;;
56039;SDS011;43937;41.366;2.072;2024-03-08T00:35:52;13.48;;;2.15;;
56039;SDS011;43937;41.366;2.072;2024-03-08T00:38:21;11.82;;;2.28;;
56039;SDS011;43937;41.366;2.072;2024-03-08T00:40:46;11.07;;;2.20;;
56039;SDS011;43937;41.366;2.072;2024-03-08T00:43:12;11.83;;;2.30;;
56039;SDS011;43937;41.366;2.072;2024-03-08T00:45:38;14.00;;;2.03;;
56039;SDS011;43937;41.366;2.072;2024-03-08T00:48:04;12.17;;;2.17;;
56039;SDS011;43937;41.366;2.072;2024-03-08T00:50:30;10.65;;;1.92;;
56039;SDS011;43937;41.366;2.072;2024-03-08T00:52:56;11.77;;;1.90;;
56039;SDS011;43937;41.366;2.072;2024-03-08T00:55:21;11.30;;;2.43;;
56039;SDS011;43937;41.366;2.072;2024-03-08T00:57:47;14.17;;;2.37;;
56039;SDS011;43937;41.366;2.072;2024-03-08T01:00:12;9.68;;;1.95;;
56039;SDS011;43937;41.366;2.072;2024-03-08T01:02:38;9.32;;;1.73;;
56039;SDS011;43937;41.366;2.072;2024-03-08T01:05:05;9.15;;;1.90;;
56039;SDS011;43937;41.366;2.072;2024-03-08T01:07:32;10.02;;;1.80;;
56039;SDS011;43937;41.366;2.072;2024-03-08T01:10:00;8.68;;;2.03;;
56039;SDS011;43937;41.366;2.072;2024-03-08T01:12:26;11.35;;;2.08;;
56039;SDS011;43937;41.366;2.072;2024-03-08T01:14:51;11.47;;;2.27;;
56039;SDS011;43937;41.366;2.072;2024-03-08T01:17:17;13.50;;;1.93;;
56039;SDS011;43937;41.366;2.072;2024-03-08T01:19:42;10.32;;;1.92;;
56039;SDS011;43937;41.366;2.072;2024-03-08T01:22:10;12.13;;;2.25;;
56039;SDS011;43937;41.366;2.072;2024-03-08T01:24:35;10.77;;;1.88;;
56039;SDS011;43937;41.366;2.072;2024-03-08T01:27:02;9.13;;;2.00;;
56039;SDS011;43937;41.366;2.072;2024-03-08T01:29:28;15.23;;;2.17;;
56039;SDS011;43937;41.366;2.072;2024-03-08T01:31:54;10.03;;;1.87;;
56039;SDS011;43937;41.366;2.072;2024-03-08T01:34:25;10.57;;;1.90;;
56039;SDS011;43937;41.366;2.072;2024-03-08T01:36:50;11.85;;;2.00;;
56039;SDS011;43937;41.366;2.072;2024-03-08T01:39:16;10.50;;;1.90;;
56039;SDS011;43937;41.366;2.072;2024-03-08T01:41:42;13.00;;;2.07;;
56039;SDS011;43937;41.366;2.072;2024-03-08T01:44:07;12.10;;;2.10;;
56039;SDS011;43937;41.366;2.072;2024-03-08T01:46:34;12.55;;;2.28;;
56039;SDS011;43937;41.366;2.072;2024-03-08T01:49:00;9.65;;;2.17;;
56039;SDS011;43937;41.366;2.072;2024-03-08T01:51:26;13.00;;;2.00;;
56039;SDS011;43937;41.366;2.072;2024-03-08T01:53:53;13.80;;;2.50;;
56039;SDS011;43937;41.366;2.072;2024-03-08T01:56:20;16.45;;;2.33;;
56039;SDS011;43937;41.366;2.072;2024-03-08T01:58:46;12.60;;;2.20;;
56039;SDS011;43937;41.366;2.072;2024-03-08T02:01:12;14.57;;;2.70;;
56039;SDS011;43937;41.366;2.072;2024-03-08T02:03:40;13.98;;;2.40;;
56039;SDS011;43937;41.366;2.072;2024-03-08T02:06:08;12.13;;;2.20;;
56039;SDS011;43937;41.366;2.072;2024-03-08T02:08:35;13.07;;;2.30;;
56039;SDS011;43937;41.366;2.072;2024-03-08T02:11:01;14.77;;;2.70;;
56039;SDS011;43937;41.366;2.072;2024-03-08T02:13:27;13.35;;;2.10;;
56039;SDS011;43937;41.366;2.072;2024-03-08T02:15:57;14.95;;;2.50;;
56039;SDS011;43937;41.366;2.072;2024-03-08T02:18:27;15.32;;;2.20;;
56039;SDS011;43937;41.366;2.072;2024-03-08T02:21:01;16.75;;;2.70;;
56039;SDS011;43937;41.366;2.072;2024-03-08T02:23:27;14.85;;;2.13;;
56039;SDS011;43937;41.366;2.072;2024-03-08T02:25:54;17.45;;;2.72;;
56039;SDS011;43937;41.366;2.072;2024-03-08T02:28:21;11.07;;;1.92;;
56039;SDS011;43937;41.366;2.072;2024-03-08T02:30:47;14.50;;;2.40;;
56039;SDS011;43937;41.366;2.072;2024-03-08T02:33:14;14.00;;;2.40;;
56039;SDS011;43937;41.366;2.072;2024-03-08T02:35:42;17.23;;;3.03;;
56039;SDS011;43937;41.366;2.072;2024-03-08T02:38:10;12.57;;;3.20;;
56039;SDS011;43937;41.366;2.072;2024-03-08T02:40:36;14.73;;;3.33;;
56039;SDS011;43937;41.366;2.072;2024-03-08T02:43:02;10.90;;;3.78;;
56039;SDS011;43937;41.366;2.072;2024-03-08T02:45:30;14.80;;;3.25;;
56039;SDS011;43937;41.366;2.072;2024-03-08T02:47:55;13.30;;;3.55;;
56039;SDS011;43937;41.366;2.072;2024-03-08T02:50:21;16.50;;;4.10;;
56039;SDS011;43937;41.366;2.072;2024-03-08T02:52:47;14.57;;;3.63;;
56039;SDS011;43937;41.366;2.072;2024-03-08T02:55:13;14.85;;;3.88;;
56039;SDS011;43937;41.366;2.072;2024-03-08T02:57:42;13.67;;;3.30;;
56039;SDS011;43937;41.366;2.072;2024-03-08T03:00:12;13.77;;;3.42;;
56039;SDS011;43937;41.366;2.072;2024-03-08T03:02:38;14.23;;;3.35;;
56039;SDS011;43937;41.366;2.072;2024-03-08T03:05:04;13.23;;;3.25;;
56039;SDS011;43937;41.366;2.072;2024-03-08T03:07:31;13.98;;;4.05;;
56039;SDS011;43937;41.366;2.072;2024-03-08T03:09:58;12.25;;;2.90;;
56039;SDS011;43937;41.366;2.072;2024-03-08T03:12:25;15.65;;;3.30;;
56039;SDS011;43937;41.366;2.072;2024-03-08T03:14:52;18.20;;;3.40;;
56039;SDS011;43937;41.366;2.072;2024-03-08T03:17:17;14.33;;;3.00;;
56039;SDS011;43937;41.366;2.072;2024-03-08T03:19:43;16.63;;;3.35;;
56039;SDS011;43937;41.366;2.072;2024-03-08T03:22:08;17.37;;;3.30;;
56039;SDS011;43937;41.366;2.072;2024-03-08T03:24:35;14.07;;;2.93;;
56039;SDS011;43937;41.366;2.072;2024-03-08T03:27:03;16.58;;;3.40;;
56039;SDS011;43937;41.366;2.072;2024-03-08T03:29:36;16.35;;;3.67;;
56039;SDS011;43937;41.366;2.072;2024-03-08T03:32:02;15.13;;;3.15;;
56039;SDS011;43937;41.366;2.072;2024-03-08T03:34:29;13.10;;;2.90;;
56039;SDS011;43937;41.366;2.072;2024-03-08T03:36:54;14.10;;;3.13;;
56039;SDS011;43937;41.366;2.072;2024-03-08T03:39:20;14.40;;;3.25;;
56039;SDS011;43937;41.366;2.072;2024-03-08T03:41:48;16.30;;;3.08;;
56039;SDS011;43937;41.366;2.072;2024-03-08T03:44:17;17.08;;;3.40;;
56039;SDS011;43937;41.366;2.072;2024-03-08T03:46:43;17.27;;;3.35;;
56039;SDS011;43937;41.366;2.072;2024-03-08T03:49:11;17.75;;;3.38;;
56039;SDS011;43937;41.366;2.072;2024-03-08T03:51:37;13.70;;;3.20;;
56039;SDS011;43937;41.366;2.072;2024-03-08T03:54:03;15.48;;;3.50;;
56039;SDS011;43937;41.366;2.072;2024-03-08T03:56:28;14.30;;;3.30;;
56039;SDS011;43937;41.366;2.072;2024-03-08T03:58:55;20.88;;;3.50;;
56039;SDS011;43937;41.366;2.072;2024-03-08T04:01:21;16.38;;;3.60;;
56039;SDS011;43937;41.366;2.072;2024-03-08T04:03:47;18.37;;;3.63;;
56039;SDS011;43937;41.366;2.072;2024-03-08T04:06:12;20.20;;;3.53;;
56039;SDS011;43937;41.366;2.072;2024-03-08T04:08:38;16.63;;;3.40;;
56039;SDS011;43937;41.366;2.072;2024-03-08T04:11:03;20.97;;;4.03;;
56039;SDS011;43937;41.366;2.072;2024-03-08T04:13:29;18.83;;;3.50;;
56039;SDS011;43937;41.366;2.072;2024-03-08T04:15:54;19.40;;;3.73;;
56039;SDS011;43937;41.366;2.072;2024-03-08T04:18:20;16.35;;;3.25;;
56039;SDS011;43937;41.366;2.072;2024-03-08T04:20:45;14.20;;;2.90;;
56039;SDS011;43937;41.366;2.072;2024-03-08T04:23:11;20.83;;;3.30;;
56039;SDS011;43937;41.366;2.072;2024-03-08T04:25:36;16.92;;;3.83;;
56039;SDS011;43937;41.366;2.072;2024-03-08T04:28:02;18.50;;;3.72;;
56039;SDS011;43937;41.366;2.072;2024-03-08T04:30:28;16.23;;;3.28;;
56039;SDS011;43937;41.366;2.072;2024-03-08T04:32:54;15.63;;;3.27;;
56039;SDS011;43937;41.366;2.072;2024-03-08T04:35:19;15.27;;;3.67;;
56039;SDS011;43937;41.366;2.072;2024-03-08T04:37:45;15.70;;;3.20;;
56039;SDS011;43937;41.366;2.072;2024-03-08T04:40:11;10.83;;;2.80;;
56039;SDS011;43937;41.366;2.072;2024-03-08T04:42:37;17.38;;;3.50;;
56039;SDS011;43937;41.366;2.072;2024-03-08T04:45:04;16.73;;;3.67;;
56039;SDS011;43937;41.366;2.072;2024-03-08T04:47:30;21.90;;;4.07;;
56039;SDS011;43937;41.366;2.072;2024-03-08T04:49:55;20.88;;;4.22;;
56039;SDS011;43937;41.366;2.072;2024-03-08T04:52:22;26.38;;;5.75;;
56039;SDS011;43937;41.366;2.072;2024-03-08T04:54:47;29.25;;;5.47;;
56039;SDS011;43937;41.366;2.072;2024-03-08T04:57:13;32.27;;;6.40;;
56039;SDS011;43937;41.366;2.072;2024-03-08T04:59:38;35.73;;;6.50;;
56039;SDS011;43937;41.366;2.072;2024-03-08T05:02:04;33.75;;;6.32;;
56039;SDS011;43937;41.366;2.072;2024-03-08T05:04:32;34.28;;;6.10;;
56039;SDS011;43937;41.366;2.072;2024-03-08T05:06:58;31.45;;;6.20;;
56039;SDS011;43937;41.366;2.072;2024-03-08T05:09:26;29.23;;;5.90;;
56039;SDS011;43937;41.366;2.072;2024-03-08T05:11:54;39.15;;;6.43;;
56039;SDS011;43937;41.366;2.072;2024-03-08T05:14:19;31.98;;;5.90;;
56039;SDS011;43937;41.366;2.072;2024-03-08T05:16:46;36.33;;;7.00;;
56039;SDS011;43937;41.366;2.072;2024-03-08T05:19:18;30.98;;;5.80;;
56039;SDS011;43937;41.366;2.072;2024-03-08T05:21:49;40.47;;;6.10;;
56039;SDS011;43937;41.366;2.072;2024-03-08T05:24:15;28.38;;;5.32;;
56039;SDS011;43937;41.366;2.072;2024-03-08T05:26:44;24.25;;;4.90;;
56039;SDS011;43937;41.366;2.072;2024-03-08T05:29:10;26.25;;;4.63;;
56039;SDS011;43937;41.366;2.072;2024-03-08T05:31:38;23.63;;;4.70;;
56039;SDS011;43937;41.366;2.072;2024-03-08T05:34:12;23.50;;;4.22;;
56039;SDS011;43937;41.366;2.072;2024-03-08T05:36:39;24.20;;;4.65;;
56039;SDS011;43937;41.366;2.072;2024-03-08T05:39:05;27.02;;;5.15;;
56039;SDS011;43937;41.366;2.072;2024-03-08T05:41:32;24.02;;;4.90;;
56039;SDS011;43937;41.366;2.072;2024-03-08T05:43:57;20.13;;;3.90;;
56039;SDS011;43937;41.366;2.072;2024-03-08T05:46:23;22.23;;;4.00;;
56039;SDS011;43937;41.366;2.072;2024-03-08T05:48:48;17.63;;;4.07;;
56039;SDS011;43937;41.366;2.072;2024-03-08T05:51:14;19.57;;;3.33;;
56039;SDS011;43937;41.366;2.072;2024-03-08T05:53:40;18.60;;;3.95;;
56039;SDS011;43937;41.366;2.072;2024-03-08T05:56:05;18.90;;;3.97;;
56039;SDS011;43937;41.366;2.072;2024-03-08T05:58:31;16.98;;;3.95;;
56039;SDS011;43937;41.366;2.072;2024-03-08T06:00:57;20.97;;;4.20;;
56039;SDS011;43937;41.366;2.072;2024-03-08T06:03:22;22.00;;;4.10;;
56039;SDS011;43937;41.366;2.072;2024-03-08T06:05:48;20.60;;;3.92;;
56039;SDS011;43937;41.366;2.072;2024-03-08T06:08:14;14.23;;;3.03;;
56039;SDS011;43937;41.366;2.072;2024-03-08T06:10:40;17.40;;;3.40;;
56039;SDS011;43937;41.366;2.072;2024-03-08T06:13:06;14.70;;;3.20;;
56039;SDS011;43937;41.366;2.072;2024-03-08T06:15:34;14.03;;;3.40;;
56039;SDS011;43937;41.366;2.072;2024-03-08T06:18:00;22.70;;;6.17;;
56039;SDS011;43937;41.366;2.072;2024-03-08T06:20:25;14.43;;;3.37;;
56039;SDS011;43937;41.366;2.072;2024-03-08T06:22:51;17.20;;;3.67;;
56039;SDS011;43937;41.366;2.072;2024-03-08T06:25:17;16.67;;;3.35;;
56039;SDS011;43937;41.366;2.072;2024-03-08T06:27:43;11.90;;;3.10;;
56039;SDS011;43937;41.366;2.072;2024-03-08T06:30:09;19.63;;;3.67;;
56039;SDS011;43937;41.366;2.072;2024-03-08T06:32:35;17.10;;;4.22;;
56039;SDS011;43937;41.366;2.072;2024-03-08T06:35:02;15.87;;;4.00;;
56039;SDS011;43937;41.366;2.072;2024-03-08T06:37:31;19.25;;;4.15;;
56039;SDS011;43937;41.366;2.072;2024-03-08T06:39:57;16.77;;;3.37;;
56039;SDS011;43937;41.366;2.072;2024-03-08T06:42:23;17.47;;;4.00;;
56039;SDS011;43937;41.366;2.072;2024-03-08T06:44:48;14.20;;;3.40;;
56039;SDS011;43937;41.366;2.072;2024-03-08T06:47:17;18.48;;;3.47;;
56039;SDS011;43937;41.366;2.072;2024-03-08T06:49:42;15.25;;;3.30;;
56039;SDS011;43937;41.366;2.072;2024-03-08T06:52:09;15.98;;;3.70;;
56039;SDS011;43937;41.366;2.072;2024-03-08T06:54:35;13.82;;;3.53;;
56039;SDS011;43937;41.366;2.072;2024-03-08T06:57:02;16.57;;;3.20;;
56039;SDS011;43937;41.366;2.072;2024-03-08T06:59:28;14.25;;;2.90;;
56039;SDS011;43937;41.366;2.072;2024-03-08T07:01:54;12.13;;;2.67;;
56039;SDS011;43937;41.366;2.072;2024-03-08T07:04:20;15.63;;;2.83;;
56039;SDS011;43937;41.366;2.072;2024-03-08T07:06:47;15.88;;;3.03;;
56039;SDS011;43937;41.366;2.072;2024-03-08T07:09:15;19.45;;;3.50;;
56039;SDS011;43937;41.366;2.072;2024-03-08T07:11:42;14.45;;;3.30;;
56039;SDS011;43937;41.366;2.072;2024-03-08T07:14:08;14.47;;;3.23;;
56039;SDS011;43937;41.366;2.072;2024-03-08T07:16:34;12.57;;;2.70;;
56039;SDS011;43937;41.366;2.072;2024-03-08T07:19:00;12.68;;;2.95;;
56039;SDS011;43937;41.366;2.072;2024-03-08T07:21:26;12.20;;;2.55;;
56039;SDS011;43937;41.366;2.072;2024-03-08T07:23:52;13.18;;;2.80;;
56039;SDS011;43937;41.366;2.072;2024-03-08T07:26:27;10.30;;;2.88;;
56039;SDS011;43937;41.366;2.072;2024-03-08T07:28:56;14.05;;;2.83;;
56039;SDS011;43937;41.366;2.072;2024-03-08T07:31:22;12.25;;;2.47;;
56039;SDS011;43937;41.366;2.072;2024-03-08T07:33:59;10.77;;;2.22;;
56039;SDS011;43937;41.366;2.072;2024-03-08T07:36:25;8.67;;;1.93;;
56039;SDS011;43937;41.366;2.072;2024-03-08T07:38:50;9.50;;;2.20;;
56039;SDS011;43937;41.366;2.072;2024-03-08T07:41:16;5.23;;;1.20;;
56039;SDS011;43937;41.366;2.072;2024-03-08T07:43:42;3.42;;;1.00;;
56039;SDS011;43937;41.366;2.072;2024-03-08T07:46:09;4.97;;;1.13;;
56039;SDS011;43937;41.366;2.072;2024-03-08T07:48:35;3.53;;;1.08;;
56039;SDS011;43937;41.366;2.072;2024-03-08T07:51:01;2.28;;;0.85;;
56039;SDS011;43937;41.366;2.072;2024-03-08T07:53:30;6.03;;;1.70;;
56039;SDS011;43937;41.366;2.072;2024-03-08T07:55:56;4.13;;;1.10;;
56039;SDS011;43937;41.366;2.072;2024-03-08T07:58:22;1.98;;;0.80;;
56039;SDS011;43937;41.366;2.072;2024-03-08T08:00:48;2.60;;;0.73;;
56039;SDS011;43937;41.366;2.072;2024-03-08T08:03:14;2.92;;;0.60;;
56039;SDS011;43937;41.366;2.072;2024-03-08T08:05:41;1.67;;;0.52;;
56039;SDS011;43937;41.366;2.072;2024-03-08T08:08:09;2.13;;;0.40;;
56039;SDS011;43937;41.366;2.072;2024-03-08T08:10:35;2.35;;;0.50;;
56039;SDS011;43937;41.366;2.072;2024-03-08T08:13:02;2.17;;;0.40;;
56039;SDS011;43937;41.366;2.072;2024-03-08T08:15:29;4.57;;;0.43;;
56039;SDS011;43937;41.366;2.072;2024-03-08T08:17:55;1.85;;;0.52;;
56039;SDS011;43937;41.366;2.072;2024-03-08T08:20:20;4.60;;;0.80;;
56039;SDS011;43937;41.366;2.072;2024-03-08T08:22:47;2.92;;;0.60;;
56039;SDS011;43937;41.366;2.072;2024-03-08T08:25:13;2.00;;;1.08;;
56039;SDS011;43937;41.366;2.072;2024-03-08T08:27:40;1.10;;;0.60;;
56039;SDS011;43937;41.366;2.072;2024-03-08T08:30:07;1.05;;;0.60;;
56039;SDS011;43937;41.366;2.072;2024-03-08T08:32:37;2.70;;;0.68;;
56039;SDS011;43937;41.366;2.072;2024-03-08T08:35:04;2.67;;;1.00;;
56039;SDS011;43937;41.366;2.072;2024-03-08T08:37:31;4.33;;;1.50;;
56039;SDS011;43937;41.366;2.072;2024-03-08T08:39:57;3.40;;;1.70;;
56039;SDS011;43937;41.366;2.072;2024-03-08T08:42:23;3.70;;;1.90;;
56039;SDS011;43937;41.366;2.072;2024-03-08T08:44:49;4.10;;;1.83;;
56039;SDS011;43937;41.366;2.072;2024-03-08T08:47:15;3.50;;;1.38;;
56039;SDS011;43937;41.366;2.072;2024-03-08T08:49:45;2.53;;;1.38;;
56039;SDS011;43937;41.366;2.072;2024-03-08T08:52:14;2.95;;;1.23;;
56039;SDS011;43937;41.366;2.072;2024-03-08T08:54:41;5.15;;;1.33;;
56039;SDS011;43937;41.366;2.072;2024-03-08T08:57:07;4.00;;;1.30;;
56039;SDS011;43937;41.366;2.072;2024-03-08T08:59:33;3.80;;;1.20;;
56039;SDS011;43937;41.366;2.072;2024-03-08T09:02:01;3.17;;;1.13;;
56039;SDS011;43937;41.366;2.072;2024-03-08T09:04:31;4.43;;;1.30;;
56039;SDS011;43937;41.366;2.072;2024-03-08T09:06:56;3.83;;;1.43;;
56039;SDS011;43937;41.366;2.072;2024-03-08T09:09:22;9.07;;;2.75;;
56039;SDS011;43937;41.366;2.072;2024-03-08T09:11:48;8.20;;;1.80;;
56039;SDS011;43937;41.366;2.072;2024-03-08T09:14:14;3.15;;;1.48;;
56039;SDS011;43937;41.366;2.072;2024-03-08T09:16:40;4.68;;;2.42;;
56039;SDS011;43937;41.366;2.072;2024-03-08T09:19:05;14.07;;;2.47;;
56039;SDS011;43937;41.366;2.072;2024-03-08T09:21:32;4.28;;;1.88;;
56039;SDS011;43937;41.366;2.072;2024-03-08T09:23:58;4.78;;;1.50;;
56039;SDS011;43937;41.366;2.072;2024-03-08T09:26:23;4.73;;;1.67;;
56039;SDS011;43937;41.366;2.072;2024-03-08T09:28:49;7.70;;;1.87;;
56039;SDS011;43937;41.366;2.072;2024-03-08T09:31:14;3.83;;;1.80;;
56039;SDS011;43937;41.366;2.072;2024-03-08T09:33:41;3.40;;;1.67;;
56039;SDS011;43937;41.366;2.072;2024-03-08T09:36:07;3.73;;;1.80;;
56039;SDS011;43937;41.366;2.072;2024-03-08T09:38:33;4.57;;;1.50;;
56039;SDS011;43937;41.366;2.072;2024-03-08T09:41:01;2.50;;;1.58;;
56039;SDS011;43937;41.366;2.072;2024-03-08T09:43:29;3.47;;;1.48;;
56039;SDS011;43937;41.366;2.072;2024-03-08T09:45:55;4.68;;;1.75;;
56039;SDS011;43937;41.366;2.072;2024-03-08T09:48:22;6.63;;;2.28;;
56039;SDS011;43937;41.366;2.072;2024-03-08T09:50:48;3.10;;;1.20;;
56039;SDS011;43937;41.366;2.072;2024-03-08T09:53:14;6.03;;;1.45;;
56039;SDS011;43937;41.366;2.072;2024-03-08T09:55:41;3.08;;;1.00;;
56039;SDS011;43937;41.366;2.072;2024-03-08T09:58:13;3.33;;;1.13;;
56039;SDS011;43937;41.366;2.072;2024-03-08T10:01:07;5.70;;;1.30;;
56039;SDS011;43937;41.366;2.072;2024-03-08T10:03:32;2.87;;;1.13;;
56039;SDS011;43937;41.366;2.072;2024-03-08T10:05:58;4.63;;;1.23;;
56039;SDS011;43937;41.366;2.072;2024-03-08T10:08:29;2.30;;;0.68;;
56039;SDS011;43937;41.366;2.072;2024-03-08T10:10:55;2.03;;;0.50;;
56039;SDS011;43937;41.366;2.072;2024-03-08T10:13:23;2.50;;;0.90;;
56039;SDS011;43937;41.366;2.072;2024-03-08T10:15:51;2.40;;;0.60;;
56039;SDS011;43937;41.366;2.072;2024-03-08T10:18:17;5.07;;;0.90;;
56039;SDS011;43937;41.366;2.072;2024-03-08T10:20:43;2.97;;;0.70;;
56039;SDS011;43937;41.366;2.072;2024-03-08T10:23:08;1.50;;;0.20;;
56039;SDS011;43937;41.366;2.072;2024-03-08T10:25:35;4.05;;;0.47;;
56039;SDS011;43937;41.366;2.072;2024-03-08T10:28:04;1.50;;;0.50;;
56039;SDS011;43937;41.366;2.072;2024-03-08T10:30:30;1.50;;;0.30;;
56039;SDS011;43937;41.366;2.072;2024-03-08T10:32:58;1.50;;;0.60;;
56039;SDS011;43937;41.366;2.072;2024-03-08T10:35:24;1.20;;;0.40;;
56039;SDS011;43937;41.366;2.072;2024-03-08T10:37:51;1.48;;;0.40;;
56039;SDS011;43937;41.366;2.072;2024-03-08T10:40:25;4.40;;;0.80;;
56039;SDS011;43937;41.366;2.072;2024-03-08T10:45:38;1.30;;;0.50;;
56039;SDS011;43937;41.366;2.072;2024-03-08T10:50:44;2.10;;;0.40;;
56039;SDS011;43937;41.366;2.072;2024-03-08T10:53:14;2.15;;;0.57;;
56039;SDS011;43937;41.366;2.072;2024-03-08T10:55:40;3.20;;;0.63;;
56039;SDS011;43937;41.366;2.072;2024-03-08T10:58:07;2.35;;;0.82;;
56039;SDS011;43937;41.366;2.072;2024-03-08T11:00:33;5.72;;;1.00;;
56039;SDS011;43937;41.366;2.072;2024-03-08T11:02:58;4.15;;;1.10;;
56039;SDS011;43937;41.366;2.072;2024-03-08T11:05:38;3.88;;;0.80;;
56039;SDS011;43937;41.366;2.072;2024-03-08T11:08:15;4.20;;;0.87;;
56039;SDS011;43937;41.366;2.072;2024-03-08T11:10:48;2.60;;;0.70;;
56039;SDS011;43937;41.366;2.072;2024-03-08T11:13:36;4.63;;;0.90;;
56039;SDS011;43937;41.366;2.072;2024-03-08T11:16:10;3.57;;;1.10;;
56039;SDS011;43937;41.366;2.072;2024-03-08T11:18:37;3.60;;;0.90;;
56039;SDS011;43937;41.366;2.072;2024-03-08T11:21:08;3.40;;;0.80;;
56039;SDS011;43937;41.366;2.072;2024-03-08T11:23:37;3.87;;;0.70;;
56039;SDS011;43937;41.366;2.072;2024-03-08T11:26:17;4.20;;;0.80;;
56039;SDS011;43937;41.366;2.072;2024-03-08T11:28:46;3.20;;;0.90;;
56039;SDS011;43937;41.366;2.072;2024-03-08T11:33:47;3.85;;;0.57;;
56039;SDS011;43937;41.366;2.072;2024-03-08T11:36:21;2.78;;;0.70;;
56039;SDS011;43937;41.366;2.072;2024-03-08T11:38:48;2.17;;;0.70;;
56039;SDS011;43937;41.366;2.072;2024-03-08T11:41:15;3.28;;;0.70;;
56039;SDS011;43937;41.366;2.072;2024-03-08T11:43:45;3.45;;;0.73;;
56039;SDS011;43937;41.366;2.072;2024-03-08T11:46:12;1.75;;;0.60;;
56039;SDS011;43937;41.366;2.072;2024-03-08T11:48:39;2.88;;;0.50;;
56039;SDS011;43937;41.366;2.072;2024-03-08T11:51:07;5.15;;;1.42;;
56039;SDS011;43937;41.366;2.072;2024-03-08T11:53:34;2.40;;;0.60;;
56039;SDS011;43937;41.366;2.072;2024-03-08T11:56:07;2.90;;;0.70;;
56039;SDS011;43937;41.366;2.072;2024-03-08T11:58:34;4.43;;;0.80;;
56039;SDS011;43937;41.366;2.072;2024-03-08T12:01:06;2.25;;;0.60;;
56039;SDS011;43937;41.366;2.072;2024-03-08T12:03:34;2.67;;;0.67;;
56039;SDS011;43937;41.366;2.072;2024-03-08T12:06:00;4.10;;;0.80;;
56039;SDS011;43937;41.366;2.072;2024-03-08T12:08:28;3.08;;;0.70;;
56039;SDS011;43937;41.366;2.072;2024-03-08T12:10:55;4.75;;;2.08;;
56039;SDS011;43937;41.366;2.072;2024-03-08T12:13:27;2.90;;;1.20;;
56039;SDS011;43937;41.366;2.072;2024-03-08T12:15:59;4.37;;;1.20;;
56039;SDS011;43937;41.366;2.072;2024-03-08T12:18:34;2.97;;;0.80;;
56039;SDS011;43937;41.366;2.072;2024-03-08T12:23:45;3.97;;;0.80;;
56039;SDS011;43937;41.366;2.072;2024-03-08T12:28:43;4.75;;;1.30;;
56039;SDS011;43937;41.366;2.072;2024-03-08T12:31:11;4.75;;;1.00;;
56039;SDS011;43937;41.366;2.072;2024-03-08T12:33:46;5.70;;;1.33;;
56039;SDS011;43937;41.366;2.072;2024-03-08T12:36:14;3.97;;;1.10;;
56039;SDS011;43937;41.366;2.072;2024-03-08T12:38:43;3.33;;;0.80;;
56039;SDS011;43937;41.366;2.072;2024-03-08T12:41:09;6.90;;;1.00;;
56039;SDS011;43937;41.366;2.072;2024-03-08T12:43:35;6.18;;;1.60;;
56039;SDS011;43937;41.366;2.072;2024-03-08T12:46:00;8.10;;;1.73;;
56039;SDS011;43937;41.366;2.072;2024-03-08T12:48:26;3.80;;;1.00;;
56039;SDS011;43937;41.366;2.072;2024-03-08T12:50:52;6.87;;;1.17;;
56039;SDS011;43937;41.366;2.072;2024-03-08T12:53:19;4.43;;;1.00;;
56039;SDS011;43937;41.366;2.072;2024-03-08T12:55:45;4.43;;;0.93;;
56039;SDS011;43937;41.366;2.072;2024-03-08T12:58:10;4.33;;;1.30;;
56039;SDS011;43937;41.366;2.072;2024-03-08T13:00:36;4.72;;;1.13;;
56039;SDS011;43937;41.366;2.072;2024-03-08T13:03:02;5.53;;;1.30;;
56039;SDS011;43937;41.366;2.072;2024-03-08T13:05:28;5.82;;;0.98;;
56039;SDS011;43937;41.366;2.072;2024-03-08T13:07:54;7.35;;;1.10;;
56039;SDS011;43937;41.366;2.072;2024-03-08T13:10:20;4.07;;;0.82;;
56039;SDS011;43937;41.366;2.072;2024-03-08T13:12:47;4.68;;;1.20;;
56039;SDS011;43937;41.366;2.072;2024-03-08T13:15:13;6.95;;;1.10;;
56039;SDS011;43937;41.366;2.072;2024-03-08T13:17:45;4.53;;;1.10;;
56039;SDS011;43937;41.366;2.072;2024-03-08T13:20:13;3.20;;;1.03;;
56039;SDS011;43937;41.366;2.072;2024-03-08T13:22:41;2.38;;;0.90;;
56039;SDS011;43937;41.366;2.072;2024-03-08T13:25:07;4.57;;;1.08;;
56039;SDS011;43937;41.366;2.072;2024-03-08T13:27:38;2.70;;;1.00;;
56039;SDS011;43937;41.366;2.072;2024-03-08T13:30:10;3.13;;;0.90;;
56039;SDS011;43937;41.366;2.072;2024-03-08T13:32:42;6.30;;;1.27;;
56039;SDS011;43937;41.366;2.072;2024-03-08T13:35:10;3.92;;;1.23;;
56039;SDS011;43937;41.366;2.072;2024-03-08T13:37:40;4.95;;;1.10;;
56039;SDS011;43937;41.366;2.072;2024-03-08T13:40:07;4.10;;;1.00;;
56039;SDS011;43937;41.366;2.072;2024-03-08T13:42:38;3.55;;;1.10;;
56039;SDS011;43937;41.366;2.072;2024-03-08T13:45:05;3.45;;;0.80;;
56039;SDS011;43937;41.366;2.072;2024-03-08T13:47:32;4.10;;;1.30;;
56039;SDS011;43937;41.366;2.072;2024-03-08T13:49:59;5.55;;;1.25;;
56039;SDS011;43937;41.366;2.072;2024-03-08T13:52:25;4.65;;;1.00;;
56039;SDS011;43937;41.366;2.072;2024-03-08T13:54:54;4.38;;;1.10;;
56039;SDS011;43937;41.366;2.072;2024-03-08T13:57:20;4.93;;;1.05;;
56039;SDS011;43937;41.366;2.072;2024-03-08T13:59:47;7.23;;;1.50;;
56039;SDS011;43937;41.366;2.072;2024-03-08T14:02:14;4.60;;;1.40;;
56039;SDS011;43937;41.366;2.072;2024-03-08T14:04:40;4.40;;;1.50;;
56039;SDS011;43937;41.366;2.072;2024-03-08T14:07:07;7.35;;;1.50;;
56039;SDS011;43937;41.366;2.072;2024-03-08T14:09:33;4.80;;;1.30;;
56039;SDS011;43937;41.366;2.072;2024-03-08T14:12:07;3.97;;;1.00;;
56039;SDS011;43937;41.366;2.072;2024-03-08T14:14:33;3.40;;;1.10;;
56039;SDS011;43937;41.366;2.072;2024-03-08T14:17:00;3.63;;;0.70;;
56039;SDS011;43937;41.366;2.072;2024-03-08T14:19:27;5.43;;;0.90;;
56039;SDS011;43937;41.366;2.072;2024-03-08T14:22:01;4.65;;;0.88;;
56039;SDS011;43937;41.366;2.072;2024-03-08T14:24:29;5.70;;;0.88;;
56039;SDS011;43937;41.366;2.072;2024-03-08T14:26:55;5.47;;;0.80;;
56039;SDS011;43937;41.366;2.072;2024-03-08T14:29:24;4.18;;;0.80;;
56039;SDS011;43937;41.366;2.072;2024-03-08T14:31:57;4.30;;;0.60;;
56039;SDS011;43937;41.366;2.072;2024-03-08T14:34:24;2.60;;;0.70;;
56039;SDS011;43937;41.366;2.072;2024-03-08T14:36:52;3.25;;;0.70;;
56039;SDS011;43937;41.366;2.072;2024-03-08T14:39:18;5.32;;;0.88;;
56039;SDS011;43937;41.366;2.072;2024-03-08T14:41:48;8.00;;;0.93;;
56039;SDS011;43937;41.366;2.072;2024-03-08T14:44:13;6.63;;;0.90;;
56039;SDS011;43937;41.366;2.072;2024-03-08T14:46:40;7.03;;;1.30;;
56039;SDS011;43937;41.366;2.072;2024-03-08T14:49:10;7.22;;;1.00;;
56039;SDS011;43937;41.366;2.072;2024-03-08T14:51:39;10.52;;;1.52;;
56039;SDS011;43937;41.366;2.072;2024-03-08T14:54:05;4.35;;;0.80;;